createdAt,value
2022-11-23T00:03:17.002Z,1.70
2022-11-23T00:08:18.692Z,1.70
2022-11-23T00:13:20.365Z,1.73
2022-11-23T00:18:21.970Z,1.50
2022-11-23T00:23:23.627Z,1.40
2022-11-23T00:28:25.331Z,1.50
2022-11-23T00:33:26.995Z,1.10
2022-11-23T00:38:28.834Z,1.43
2022-11-23T00:43:33.438Z,1.10
2022-11-23T00:48:35.614Z,1.30
2022-11-23T00:53:37.480Z,2.00
2022-11-23T00:58:41.829Z,1.20
2022-11-23T01:03:46.486Z,1.60
2022-11-23T01:08:49.941Z,1.30
2022-11-23T01:13:52.135Z,1.37
2022-11-23T01:18:55.268Z,1.40
2022-11-23T01:23:58.478Z,1.33
2022-11-23T01:29:08.532Z,1.13
2022-11-23T01:34:14.343Z,1.40
2022-11-23T01:39:16.128Z,1.30
2022-11-23T01:44:24.015Z,1.30
2022-11-23T01:49:34.064Z,1.40
2022-11-23T01:54:40.180Z,1.43
2022-11-23T01:59:41.963Z,1.07
2022-11-23T02:04:47.056Z,1.30
2022-11-23T02:09:49.255Z,1.30
2022-11-23T02:14:50.986Z,1.27
2022-11-23T02:20:15.843Z,1.37
2022-11-23T02:25:26.108Z,1.27
2022-11-23T02:30:31.737Z,1.30
2022-11-23T02:35:34.421Z,2.07
2022-11-23T02:40:36.649Z,1.40
2022-11-23T02:45:47.404Z,1.40
2022-11-23T02:50:49.078Z,1.20
2022-11-23T02:55:50.796Z,1.30
2022-11-23T03:00:55.985Z,1.30
2022-11-23T03:05:57.875Z,1.47
2022-11-23T03:11:02.176Z,1.33
2022-11-23T03:16:05.727Z,1.50
2022-11-23T03:21:11.105Z,1.67
2022-11-23T03:26:13.653Z,1.30
2022-11-23T03:31:29.395Z,1.30
2022-11-23T03:36:31.232Z,1.40
2022-11-23T03:41:32.882Z,1.60
2022-11-23T03:46:36.248Z,1.30
2022-11-23T03:51:38.180Z,1.40
2022-11-23T03:56:39.977Z,1.10
2022-11-23T04:01:41.822Z,1.77
2022-11-23T04:06:49.841Z,1.50
2022-11-23T04:11:56.023Z,1.40
2022-11-23T04:16:57.820Z,1.70
2022-11-23T04:22:01.328Z,1.20
2022-11-23T04:27:08.986Z,1.30
2022-11-23T04:32:12.173Z,1.40
2022-11-23T04:37:14.676Z,1.47
2022-11-23T04:42:24.999Z,1.50
2022-11-23T04:47:32.658Z,1.23
2022-11-23T04:52:38.704Z,1.60
2022-11-23T04:57:46.953Z,1.70
2022-11-23T05:02:48.812Z,1.30
2022-11-23T05:07:57.039Z,1.30
2022-11-23T05:13:03.968Z,1.30
2022-11-23T05:18:06.888Z,1.67
2022-11-23T05:23:10.980Z,1.87
2022-11-23T05:28:39.058Z,1.40
2022-11-23T05:33:41.045Z,1.33
2022-11-23T05:38:44.399Z,1.40
2022-11-23T05:43:54.433Z,1.30
2022-11-23T05:49:00.773Z,2.00
2022-11-23T05:54:07.745Z,1.70
2022-11-23T05:59:15.111Z,1.40
2022-11-23T06:04:20.944Z,1.80
2022-11-23T06:09:24.369Z,1.50
2022-11-23T06:14:28.625Z,1.50
2022-11-23T06:19:31.951Z,1.53
2022-11-23T06:24:33.944Z,1.63
2022-11-23T06:29:55.561Z,1.40
2022-11-23T06:35:01.499Z,1.40
2022-11-23T06:40:07.998Z,1.60
2022-11-23T06:45:10.365Z,1.50
2022-11-23T06:50:14.617Z,1.60
2022-11-23T06:55:20.233Z,1.50
2022-11-23T07:00:22.740Z,1.70
2022-11-23T07:05:24.887Z,1.63
2022-11-23T07:10:26.779Z,1.80
2022-11-23T07:15:32.756Z,1.80
2022-11-23T07:20:35.761Z,1.50
2022-11-23T07:25:39.094Z,1.47
2022-11-23T07:30:41.863Z,1.70
2022-11-23T07:35:44.360Z,1.97
2022-11-23T07:40:49.066Z,1.90
2022-11-23T07:46:02.544Z,1.70
2022-11-23T07:51:04.508Z,2.10
2022-11-23T07:56:06.532Z,1.73
2022-11-23T08:01:08.193Z,1.70
2022-11-23T08:06:10.316Z,2.20
2022-11-23T08:11:14.890Z,2.00
2022-11-23T08:16:16.737Z,2.10
2022-11-23T08:21:18.260Z,1.60
2022-11-23T08:26:20.010Z,1.83
2022-11-23T08:31:21.640Z,1.77
2022-11-23T08:36:24.635Z,1.70
2022-11-23T08:41:26.272Z,1.50
2022-11-23T08:46:27.890Z,2.20
2022-11-23T08:51:29.993Z,2.00
2022-11-23T08:56:31.596Z,1.80
2022-11-23T09:01:33.365Z,2.00
2022-11-23T09:06:35.536Z,1.90
2022-11-23T09:11:37.258Z,1.90
2022-11-23T09:16:38.901Z,1.87
2022-11-23T09:21:42.785Z,2.27
2022-11-23T09:26:44.594Z,1.63
2022-11-23T09:31:46.217Z,1.60
2022-11-23T09:36:47.946Z,1.57
2022-11-23T09:42:17.625Z,1.70
2022-11-23T09:47:33.955Z,2.20
2022-11-23T09:52:36.524Z,1.80
2022-11-23T09:57:39.868Z,2.03
2022-11-23T10:02:41.604Z,2.43
2022-11-23T10:07:51.984Z,1.93
2022-11-23T10:12:56.349Z,1.80
2022-11-23T10:18:25.964Z,1.80
2022-11-23T10:23:39.831Z,1.80
2022-11-23T10:28:41.353Z,2.33
2022-11-23T10:34:01.108Z,1.70
2022-11-23T10:39:05.471Z,1.83
2022-11-23T10:44:32.381Z,1.60
2022-11-23T10:49:35.391Z,2.00
2022-11-23T10:54:40.368Z,2.00
2022-11-23T10:59:41.984Z,1.70
2022-11-23T11:04:44.918Z,1.63
2022-11-23T11:09:54.658Z,1.90
2022-11-23T11:15:11.304Z,1.50
2022-11-23T11:20:29.167Z,1.67
2022-11-23T11:25:38.197Z,1.50
2022-11-23T11:30:57.193Z,1.60
2022-11-23T11:36:01.317Z,1.50
2022-11-23T11:41:08.145Z,1.43
2022-11-23T11:46:29.059Z,1.60
2022-11-23T11:51:38.387Z,1.57
2022-11-23T11:56:44.166Z,1.90
2022-11-23T12:01:49.070Z,1.50
2022-11-23T12:06:54.469Z,1.57
2022-11-23T12:11:56.383Z,1.60
2022-11-23T12:17:33.384Z,2.27
2022-11-23T12:22:37.912Z,2.33
2022-11-23T12:27:56.108Z,2.50
2022-11-23T12:33:09.583Z,2.50
2022-11-23T12:38:36.706Z,2.13
2022-11-23T12:44:02.984Z,2.10
2022-11-23T12:49:39.419Z,2.20
2022-11-23T12:55:07.121Z,2.23
2022-11-23T13:00:20.745Z,2.27
2022-11-23T13:05:45.207Z,2.00
2022-11-23T13:10:53.330Z,1.50
2022-11-23T13:16:24.566Z,2.07
2022-11-23T13:21:34.040Z,1.90
2022-11-23T13:26:37.816Z,1.47
2022-11-23T13:31:39.536Z,1.90
2022-11-23T13:42:12.516Z,1.47
2022-11-23T13:47:15.961Z,1.53
2022-11-23T13:52:25.222Z,1.60
2022-11-23T13:57:26.937Z,1.50
2022-11-23T14:02:30.406Z,2.07
2022-11-23T14:07:43.531Z,1.27
2022-11-23T14:12:56.748Z,1.40
2022-11-23T14:18:19.359Z,1.30
2022-11-23T14:23:51.897Z,1.50
2022-11-23T14:29:21.472Z,1.40
2022-11-23T14:34:35.694Z,1.20
2022-11-23T14:39:58.175Z,1.43
2022-11-23T14:45:03.887Z,1.70
2022-11-23T14:50:05.696Z,1.60
2022-11-23T14:55:07.846Z,1.20
2022-11-23T15:00:31.009Z,1.10
2022-11-23T15:05:35.018Z,1.57
2022-11-23T15:10:45.030Z,1.77
2022-11-23T15:15:47.671Z,1.30
2022-11-23T15:20:49.297Z,1.30
2022-11-23T15:25:55.129Z,1.50
2022-11-23T15:30:58.791Z,1.40
2022-11-23T15:36:00.689Z,1.70
2022-11-23T15:41:05.115Z,1.60
2022-11-23T15:46:12.613Z,1.73
2022-11-23T15:51:23.655Z,1.60
2022-11-23T15:56:33.569Z,1.60
2022-11-23T16:01:38.058Z,1.70
2022-11-23T16:06:47.598Z,1.47
2022-11-23T16:11:49.611Z,1.50
2022-11-23T16:17:00.672Z,1.87
2022-11-23T16:22:04.845Z,1.70
2022-11-23T16:27:14.110Z,1.83
2022-11-23T16:32:29.761Z,2.00
2022-11-23T16:37:31.659Z,1.93
2022-11-23T16:42:33.441Z,1.90
2022-11-23T16:47:35.218Z,1.57
2022-11-23T16:52:48.771Z,1.87
2022-11-23T16:57:51.948Z,1.77
2022-11-23T17:02:53.856Z,2.00
2022-11-23T17:07:55.679Z,2.17
2022-11-23T17:12:59.516Z,2.27
2022-11-23T17:18:03.835Z,2.40
2022-11-23T17:23:05.557Z,2.83
2022-11-23T17:28:14.383Z,2.20
2022-11-23T17:33:16.148Z,1.97
2022-11-23T17:38:20.090Z,2.20
2022-11-23T17:43:21.677Z,2.70
2022-11-23T17:48:23.291Z,2.10
2022-11-23T17:53:25.919Z,2.10
2022-11-23T17:58:27.606Z,2.50
2022-11-23T18:03:29.245Z,2.10
2022-11-23T18:08:31.001Z,1.97
2022-11-23T18:13:33.771Z,1.70
2022-11-23T18:18:35.729Z,1.83
2022-11-23T18:23:37.443Z,1.63
2022-11-23T18:28:39.161Z,1.80
2022-11-23T18:33:41.297Z,1.77
2022-11-23T18:38:46.631Z,1.70
2022-11-23T18:43:48.284Z,1.57
2022-11-23T18:48:50.447Z,1.63
2022-11-23T18:53:53.233Z,1.93
2022-11-23T18:58:54.807Z,1.90
2022-11-23T19:03:56.645Z,1.97
2022-11-23T19:08:58.419Z,2.00
2022-11-23T19:14:03.373Z,2.33
2022-11-23T19:19:06.954Z,1.83
2022-11-23T19:24:09.116Z,1.80
2022-11-23T19:29:11.233Z,2.10
2022-11-23T19:34:13.054Z,2.10
2022-11-23T19:39:14.866Z,2.43
2022-11-23T19:44:16.798Z,2.30
2022-11-23T19:49:18.924Z,2.00
2022-11-23T19:54:21.788Z,2.27
2022-11-23T19:59:25.021Z,2.23
2022-11-23T20:04:26.788Z,2.40
2022-11-23T20:09:28.519Z,2.20
2022-11-23T20:14:30.386Z,2.37
2022-11-23T20:19:32.838Z,2.33
2022-11-23T20:24:35.434Z,2.33
2022-11-23T20:29:36.939Z,2.10
2022-11-23T20:34:38.578Z,2.50
2022-11-23T20:39:40.057Z,2.30
2022-11-23T20:44:41.524Z,2.07
2022-11-23T20:49:43.014Z,3.07
2022-11-23T20:54:44.594Z,2.50
2022-11-23T20:59:46.079Z,2.13
2022-11-23T21:04:48.640Z,2.27
2022-11-23T21:09:50.154Z,2.30
2022-11-23T21:14:52.646Z,2.23
2022-11-23T21:19:54.292Z,2.40
2022-11-23T21:24:55.922Z,2.20
2022-11-23T21:29:57.745Z,2.13
2022-11-23T21:34:59.383Z,2.23
2022-11-23T21:40:00.968Z,2.50
2022-11-23T21:45:03.164Z,2.37
2022-11-23T21:50:05.100Z,2.40
2022-11-23T21:55:07.461Z,2.50
2022-11-23T22:00:10.074Z,2.67
2022-11-23T22:05:13.684Z,2.67
2022-11-23T22:10:15.538Z,2.30
2022-11-23T22:15:17.237Z,2.37
2022-11-23T22:20:18.765Z,2.93
2022-11-23T22:25:20.307Z,2.20
2022-11-23T22:30:21.856Z,2.83
2022-11-23T22:35:23.392Z,2.57
2022-11-23T22:40:24.941Z,2.50
2022-11-23T22:45:26.565Z,2.37
2022-11-23T22:50:28.185Z,2.33
2022-11-23T22:55:30.826Z,2.40
2022-11-23T23:00:32.793Z,2.43
2022-11-23T23:05:34.607Z,2.07
2022-11-23T23:10:36.468Z,2.43
2022-11-23T23:15:38.440Z,1.90
2022-11-23T23:20:40.196Z,2.20
2022-11-23T23:25:41.853Z,2.57
2022-11-23T23:30:43.763Z,2.30
2022-11-23T23:35:45.830Z,2.70
2022-11-23T23:40:47.581Z,2.57
2022-11-23T23:45:50.503Z,1.97
2022-11-23T23:50:52.197Z,2.23
2022-11-23T23:55:58.282Z,3.87
